sensor_id;sensor_type;location;lat;lon;timestamp;P1;durP1;ratioP1;P2;durP2;ratioP2
65567;SDS011;52211;50.154;8.682;2023-11-18T00:00:23;12.77;;;8.97;;
65567;SDS011;52211;50.154;8.682;2023-11-18T00:02:53;12.20;;;9.03;;
65567;SDS011;52211;50.154;8.682;2023-11-18T00:05:25;10.30;;;8.33;;
65567;SDS011;52211;50.154;8.682;2023-11-18T00:07:52;11.07;;;9.03;;
65567;SDS011;52211;50.154;8.682;2023-11-18T00:10:21;13.20;;;8.60;;
65567;SDS011;52211;50.154;8.682;2023-11-18T00:12:52;10.70;;;8.63;;
65567;SDS011;52211;50.154;8.682;2023-11-18T00:15:22;9.37;;;7.83;;
65567;SDS011;52211;50.154;8.682;2023-11-18T00:17:54;10.07;;;8.90;;
65567;SDS011;52211;50.154;8.682;2023-11-18T00:20:21;10.93;;;9.00;;
65567;SDS011;52211;50.154;8.682;2023-11-18T00:22:53;15.27;;;10.20;;
65567;SDS011;52211;50.154;8.682;2023-11-18T00:25:22;10.27;;;8.93;;
65567;SDS011;52211;50.154;8.682;2023-11-18T00:27:52;10.87;;;9.00;;
65567;SDS011;52211;50.154;8.682;2023-11-18T00:30:18;9.67;;;8.67;;
65567;SDS011;52211;50.154;8.682;2023-11-18T00:32:48;12.13;;;9.37;;
65567;SDS011;52211;50.154;8.682;2023-11-18T00:35:15;10.07;;;8.73;;
65567;SDS011;52211;50.154;8.682;2023-11-18T00:37:43;12.20;;;9.33;;
65567;SDS011;52211;50.154;8.682;2023-11-18T00:40:14;11.73;;;9.17;;
65567;SDS011;52211;50.154;8.682;2023-11-18T00:42:44;10.73;;;8.10;;
65567;SDS011;52211;50.154;8.682;2023-11-18T00:45:13;13.37;;;9.33;;
65567;SDS011;52211;50.154;8.682;2023-11-18T00:47:40;10.83;;;8.67;;
65567;SDS011;52211;50.154;8.682;2023-11-18T00:50:10;11.17;;;8.43;;
65567;SDS011;52211;50.154;8.682;2023-11-18T00:52:39;10.73;;;8.63;;
65567;SDS011;52211;50.154;8.682;2023-11-18T00:55:09;12.03;;;9.67;;
65567;SDS011;52211;50.154;8.682;2023-11-18T00:57:37;10.83;;;9.47;;
65567;SDS011;52211;50.154;8.682;2023-11-18T01:00:08;11.20;;;9.63;;
65567;SDS011;52211;50.154;8.682;2023-11-18T01:02:48;11.97;;;9.23;;
65567;SDS011;52211;50.154;8.682;2023-11-18T01:05:16;12.87;;;8.50;;
65567;SDS011;52211;50.154;8.682;2023-11-18T01:07:45;9.00;;;8.10;;
65567;SDS011;52211;50.154;8.682;2023-11-18T01:10:17;10.10;;;8.13;;
65567;SDS011;52211;50.154;8.682;2023-11-18T01:12:45;11.33;;;8.87;;
65567;SDS011;52211;50.154;8.682;2023-11-18T01:15:14;10.83;;;9.17;;
65567;SDS011;52211;50.154;8.682;2023-11-18T01:17:44;10.57;;;8.77;;
65567;SDS011;52211;50.154;8.682;2023-11-18T01:20:18;9.63;;;8.47;;
65567;SDS011;52211;50.154;8.682;2023-11-18T01:22:48;10.53;;;8.57;;
65567;SDS011;52211;50.154;8.682;2023-11-18T01:25:18;11.13;;;8.67;;
65567;SDS011;52211;50.154;8.682;2023-11-18T01:27:45;14.47;;;9.43;;
65567;SDS011;52211;50.154;8.682;2023-11-18T01:30:17;13.53;;;9.30;;
65567;SDS011;52211;50.154;8.682;2023-11-18T01:32:46;13.57;;;9.83;;
65567;SDS011;52211;50.154;8.682;2023-11-18T01:35:17;11.23;;;8.77;;
65567;SDS011;52211;50.154;8.682;2023-11-18T01:37:45;10.27;;;9.07;;
65567;SDS011;52211;50.154;8.682;2023-11-18T01:40:15;12.67;;;8.53;;
65567;SDS011;52211;50.154;8.682;2023-11-18T01:42:43;9.57;;;8.53;;
65567;SDS011;52211;50.154;8.682;2023-11-18T01:45:13;13.00;;;9.13;;
65567;SDS011;52211;50.154;8.682;2023-11-18T01:47:40;12.00;;;8.50;;
65567;SDS011;52211;50.154;8.682;2023-11-18T01:50:13;11.07;;;8.37;;
65567;SDS011;52211;50.154;8.682;2023-11-18T01:52:47;11.57;;;8.50;;
65567;SDS011;52211;50.154;8.682;2023-11-18T01:55:15;12.63;;;9.00;;
65567;SDS011;52211;50.154;8.682;2023-11-18T01:57:45;8.83;;;7.87;;
65567;SDS011;52211;50.154;8.682;2023-11-18T02:00:12;11.70;;;8.93;;
65567;SDS011;52211;50.154;8.682;2023-11-18T02:02:43;10.77;;;8.77;;
65567;SDS011;52211;50.154;8.682;2023-11-18T02:05:13;12.10;;;9.30;;
65567;SDS011;52211;50.154;8.682;2023-11-18T02:07:40;11.40;;;8.60;;
65567;SDS011;52211;50.154;8.682;2023-11-18T02:10:08;11.03;;;8.97;;
65567;SDS011;52211;50.154;8.682;2023-11-18T02:13:02;9.70;;;8.70;;
65567;SDS011;52211;50.154;8.682;2023-11-18T02:15:43;9.30;;;8.30;;
65567;SDS011;52211;50.154;8.682;2023-11-18T02:18:14;10.17;;;7.97;;
65567;SDS011;52211;50.154;8.682;2023-11-18T02:20:44;9.07;;;7.80;;
65567;SDS011;52211;50.154;8.682;2023-11-18T02:23:13;12.30;;;9.10;;
65567;SDS011;52211;50.154;8.682;2023-11-18T02:25:45;10.27;;;8.33;;
65567;SDS011;52211;50.154;8.682;2023-11-18T02:28:20;9.53;;;8.27;;
65567;SDS011;52211;50.154;8.682;2023-11-18T02:30:47;9.33;;;8.40;;
65567;SDS011;52211;50.154;8.682;2023-11-18T02:33:33;8.60;;;7.70;;
65567;SDS011;52211;50.154;8.682;2023-11-18T02:36:26;9.83;;;8.70;;
65567;SDS011;52211;50.154;8.682;2023-11-18T02:39:08;10.07;;;7.80;;
65567;SDS011;52211;50.154;8.682;2023-11-18T02:41:51;8.57;;;7.43;;
65567;SDS011;52211;50.154;8.682;2023-11-18T02:44:22;10.13;;;8.27;;
65567;SDS011;52211;50.154;8.682;2023-11-18T02:46:54;15.63;;;8.70;;
65567;SDS011;52211;50.154;8.682;2023-11-18T02:49:21;8.90;;;8.00;;
65567;SDS011;52211;50.154;8.682;2023-11-18T02:51:54;7.80;;;7.10;;
65567;SDS011;52211;50.154;8.682;2023-11-18T02:54:21;11.60;;;7.90;;
65567;SDS011;52211;50.154;8.682;2023-11-18T02:56:51;6.77;;;6.17;;
65567;SDS011;52211;50.154;8.682;2023-11-18T02:59:21;7.13;;;6.43;;
65567;SDS011;52211;50.154;8.682;2023-11-18T03:01:48;6.80;;;5.90;;
65567;SDS011;52211;50.154;8.682;2023-11-18T03:04:17;8.83;;;6.73;;
65567;SDS011;52211;50.154;8.682;2023-11-18T03:06:47;13.03;;;6.97;;
65567;SDS011;52211;50.154;8.682;2023-11-18T03:09:16;8.47;;;6.10;;
65567;SDS011;52211;50.154;8.682;2023-11-18T03:11:45;7.63;;;6.40;;
65567;SDS011;52211;50.154;8.682;2023-11-18T03:14:14;7.87;;;6.83;;
65567;SDS011;52211;50.154;8.682;2023-11-18T03:16:43;8.67;;;6.57;;
65567;SDS011;52211;50.154;8.682;2023-11-18T03:19:10;8.10;;;6.73;;
65567;SDS011;52211;50.154;8.682;2023-11-18T03:21:40;7.47;;;6.77;;
65567;SDS011;52211;50.154;8.682;2023-11-18T03:24:12;10.50;;;6.67;;
65567;SDS011;52211;50.154;8.682;2023-11-18T03:26:42;6.30;;;5.70;;
65567;SDS011;52211;50.154;8.682;2023-11-18T03:29:11;7.47;;;6.77;;
65567;SDS011;52211;50.154;8.682;2023-11-18T03:31:42;5.97;;;5.23;;
65567;SDS011;52211;50.154;8.682;2023-11-18T03:34:17;5.43;;;4.83;;
65567;SDS011;52211;50.154;8.682;2023-11-18T03:36:53;7.30;;;6.43;;
65567;SDS011;52211;50.154;8.682;2023-11-18T03:39:23;10.53;;;6.20;;
65567;SDS011;52211;50.154;8.682;2023-11-18T03:41:53;7.50;;;6.27;;
65567;SDS011;52211;50.154;8.682;2023-11-18T03:44:23;11.40;;;5.63;;
65567;SDS011;52211;50.154;8.682;2023-11-18T03:46:54;9.73;;;6.67;;
65567;SDS011;52211;50.154;8.682;2023-11-18T03:49:23;7.60;;;5.73;;
65567;SDS011;52211;50.154;8.682;2023-11-18T03:51:54;8.93;;;6.23;;
65567;SDS011;52211;50.154;8.682;2023-11-18T03:54:24;7.20;;;5.70;;
65567;SDS011;52211;50.154;8.682;2023-11-18T03:56:53;9.47;;;6.47;;
65567;SDS011;52211;50.154;8.682;2023-11-18T03:59:22;11.27;;;5.97;;
65567;SDS011;52211;50.154;8.682;2023-11-18T04:01:49;12.87;;;6.23;;
65567;SDS011;52211;50.154;8.682;2023-11-18T04:04:17;6.67;;;5.97;;
65567;SDS011;52211;50.154;8.682;2023-11-18T04:06:46;7.50;;;6.57;;
65567;SDS011;52211;50.154;8.682;2023-11-18T04:09:13;7.63;;;6.43;;
65567;SDS011;52211;50.154;8.682;2023-11-18T04:11:41;13.57;;;6.20;;
65567;SDS011;52211;50.154;8.682;2023-11-18T04:14:12;8.00;;;5.77;;
65567;SDS011;52211;50.154;8.682;2023-11-18T04:16:41;9.60;;;5.83;;
65567;SDS011;52211;50.154;8.682;2023-11-18T04:19:11;9.17;;;5.70;;
65567;SDS011;52211;50.154;8.682;2023-11-18T04:21:38;7.73;;;5.80;;
65567;SDS011;52211;50.154;8.682;2023-11-18T04:24:16;7.87;;;6.33;;
65567;SDS011;52211;50.154;8.682;2023-11-18T04:26:50;8.03;;;6.47;;
65567;SDS011;52211;50.154;8.682;2023-11-18T04:29:20;7.73;;;6.03;;
65567;SDS011;52211;50.154;8.682;2023-11-18T04:31:57;8.77;;;6.53;;
65567;SDS011;52211;50.154;8.682;2023-11-18T04:34:28;12.47;;;6.93;;
65567;SDS011;52211;50.154;8.682;2023-11-18T04:36:54;6.60;;;5.87;;
65567;SDS011;52211;50.154;8.682;2023-11-18T04:39:24;7.53;;;6.57;;
65567;SDS011;52211;50.154;8.682;2023-11-18T04:41:51;7.07;;;6.07;;
65567;SDS011;52211;50.154;8.682;2023-11-18T04:44:18;8.60;;;6.37;;
65567;SDS011;52211;50.154;8.682;2023-11-18T04:46:50;12.17;;;7.60;;
65567;SDS011;52211;50.154;8.682;2023-11-18T04:49:19;7.27;;;6.37;;
65567;SDS011;52211;50.154;8.682;2023-11-18T04:51:54;9.23;;;6.87;;
65567;SDS011;52211;50.154;8.682;2023-11-18T04:54:20;7.23;;;6.30;;
65567;SDS011;52211;50.154;8.682;2023-11-18T04:56:47;7.43;;;6.77;;
65567;SDS011;52211;50.154;8.682;2023-11-18T04:59:14;7.90;;;6.97;;
65567;SDS011;52211;50.154;8.682;2023-11-18T05:01:44;7.10;;;6.40;;
65567;SDS011;52211;50.154;8.682;2023-11-18T05:04:11;9.40;;;7.07;;
65567;SDS011;52211;50.154;8.682;2023-11-18T05:06:47;9.13;;;7.47;;
65567;SDS011;52211;50.154;8.682;2023-11-18T05:09:17;10.30;;;7.10;;
65567;SDS011;52211;50.154;8.682;2023-11-18T05:11:44;9.37;;;7.47;;
65567;SDS011;52211;50.154;8.682;2023-11-18T05:14:14;8.40;;;6.93;;
65567;SDS011;52211;50.154;8.682;2023-11-18T05:16:43;9.00;;;6.93;;
65567;SDS011;52211;50.154;8.682;2023-11-18T05:19:10;8.60;;;7.17;;
65567;SDS011;52211;50.154;8.682;2023-11-18T05:21:37;11.23;;;8.10;;
65567;SDS011;52211;50.154;8.682;2023-11-18T05:24:08;9.53;;;7.13;;
65567;SDS011;52211;50.154;8.682;2023-11-18T05:26:39;10.73;;;7.47;;
65567;SDS011;52211;50.154;8.682;2023-11-18T05:29:06;8.77;;;7.83;;
65567;SDS011;52211;50.154;8.682;2023-11-18T08:59:12;24.93;;;15.27;;
65567;SDS011;52211;50.154;8.682;2023-11-18T09:01:41;28.17;;;17.37;;
65567;SDS011;52211;50.154;8.682;2023-11-18T09:04:09;26.17;;;14.27;;
65567;SDS011;52211;50.154;8.682;2023-11-18T09:06:36;22.50;;;12.83;;
65567;SDS011;52211;50.154;8.682;2023-11-18T09:09:08;22.40;;;13.23;;
65567;SDS011;52211;50.154;8.682;2023-11-18T09:11:39;23.50;;;12.30;;
65567;SDS011;52211;50.154;8.682;2023-11-18T09:14:10;21.27;;;10.77;;
65567;SDS011;52211;50.154;8.682;2023-11-18T09:16:41;20.80;;;11.63;;
65567;SDS011;52211;50.154;8.682;2023-11-18T09:19:14;22.27;;;12.27;;
65567;SDS011;52211;50.154;8.682;2023-11-18T09:21:44;16.33;;;11.03;;
65567;SDS011;52211;50.154;8.682;2023-11-18T09:24:11;22.33;;;11.70;;
65567;SDS011;52211;50.154;8.682;2023-11-18T09:26:44;19.57;;;11.10;;
65567;SDS011;52211;50.154;8.682;2023-11-18T09:29:13;20.90;;;11.97;;
65567;SDS011;52211;50.154;8.682;2023-11-18T09:31:46;22.13;;;11.60;;
65567;SDS011;52211;50.154;8.682;2023-11-18T09:34:15;19.97;;;11.73;;
65567;SDS011;52211;50.154;8.682;2023-11-18T09:36:44;21.03;;;11.27;;
65567;SDS011;52211;50.154;8.682;2023-11-18T09:39:14;20.23;;;11.83;;
65567;SDS011;52211;50.154;8.682;2023-11-18T09:41:53;18.73;;;12.33;;
65567;SDS011;52211;50.154;8.682;2023-11-18T09:44:20;22.33;;;11.80;;
65567;SDS011;52211;50.154;8.682;2023-11-18T09:46:56;21.93;;;12.20;;
65567;SDS011;52211;50.154;8.682;2023-11-18T09:49:34;19.33;;;11.13;;
65567;SDS011;52211;50.154;8.682;2023-11-18T09:52:15;20.97;;;12.20;;
65567;SDS011;52211;50.154;8.682;2023-11-18T09:54:49;20.30;;;11.73;;
65567;SDS011;52211;50.154;8.682;2023-11-18T09:57:40;19.80;;;12.10;;
65567;SDS011;52211;50.154;8.682;2023-11-18T10:00:23;22.20;;;12.07;;
65567;SDS011;52211;50.154;8.682;2023-11-18T10:02:55;21.53;;;12.20;;
65567;SDS011;52211;50.154;8.682;2023-11-18T10:05:27;19.93;;;11.97;;
65567;SDS011;52211;50.154;8.682;2023-11-18T10:07:59;19.10;;;11.80;;
65567;SDS011;52211;50.154;8.682;2023-11-18T10:10:34;19.57;;;12.40;;
65567;SDS011;52211;50.154;8.682;2023-11-18T10:13:04;20.30;;;11.83;;
65567;SDS011;52211;50.154;8.682;2023-11-18T10:15:34;22.47;;;11.87;;
65567;SDS011;52211;50.154;8.682;2023-11-18T10:18:02;19.60;;;11.57;;
65567;SDS011;52211;50.154;8.682;2023-11-18T10:20:49;20.30;;;12.57;;
65567;SDS011;52211;50.154;8.682;2023-11-18T10:23:21;20.97;;;12.23;;
65567;SDS011;52211;50.154;8.682;2023-11-18T10:25:53;20.97;;;12.10;;
65567;SDS011;52211;50.154;8.682;2023-11-18T10:31:04;20.50;;;12.63;;
65567;SDS011;52211;50.154;8.682;2023-11-18T10:33:36;19.30;;;12.80;;
65567;SDS011;52211;50.154;8.682;2023-11-18T10:36:20;19.40;;;12.00;;
65567;SDS011;52211;50.154;8.682;2023-11-18T10:38:52;18.67;;;11.97;;
65567;SDS011;52211;50.154;8.682;2023-11-18T10:41:25;21.57;;;12.80;;
65567;SDS011;52211;50.154;8.682;2023-11-18T10:44:06;22.80;;;15.10;;
65567;SDS011;52211;50.154;8.682;2023-11-18T10:46:43;25.93;;;16.90;;
65567;SDS011;52211;50.154;8.682;2023-11-18T10:49:20;18.83;;;12.37;;
65567;SDS011;52211;50.154;8.682;2023-11-18T10:51:55;23.93;;;13.10;;
65567;SDS011;52211;50.154;8.682;2023-11-18T10:54:33;21.40;;;13.27;;
65567;SDS011;52211;50.154;8.682;2023-11-18T10:57:05;27.57;;;14.13;;
65567;SDS011;52211;50.154;8.682;2023-11-18T10:59:35;24.47;;;13.90;;
65567;SDS011;52211;50.154;8.682;2023-11-18T11:02:22;25.93;;;13.63;;
65567;SDS011;52211;50.154;8.682;2023-11-18T11:04:50;24.27;;;14.73;;
65567;SDS011;52211;50.154;8.682;2023-11-18T11:07:19;25.47;;;14.57;;
65567;SDS011;52211;50.154;8.682;2023-11-18T11:09:54;26.90;;;14.37;;
65567;SDS011;52211;50.154;8.682;2023-11-18T11:12:23;27.20;;;13.80;;
65567;SDS011;52211;50.154;8.682;2023-11-18T11:15:00;24.63;;;13.20;;
65567;SDS011;52211;50.154;8.682;2023-11-18T11:17:34;25.53;;;15.27;;
65567;SDS011;52211;50.154;8.682;2023-11-18T11:20:06;28.13;;;16.70;;
65567;SDS011;52211;50.154;8.682;2023-11-18T11:29:55;16.77;;;12.10;;
65567;SDS011;52211;50.154;8.682;2023-11-18T11:32:45;15.17;;;10.47;;
65567;SDS011;52211;50.154;8.682;2023-11-18T11:35:55;17.43;;;11.03;;
65567;SDS011;52211;50.154;8.682;2023-11-18T11:38:24;14.30;;;10.23;;
65567;SDS011;52211;50.154;8.682;2023-11-18T11:40:58;15.40;;;9.93;;
65567;SDS011;52211;50.154;8.682;2023-11-18T11:43:32;12.93;;;10.53;;
65567;SDS011;52211;50.154;8.682;2023-11-18T11:46:06;11.50;;;8.90;;
65567;SDS011;52211;50.154;8.682;2023-11-18T11:48:42;11.53;;;9.53;;
65567;SDS011;52211;50.154;8.682;2023-11-18T11:51:28;13.17;;;9.63;;
65567;SDS011;52211;50.154;8.682;2023-11-18T11:56:44;10.40;;;8.13;;
65567;SDS011;52211;50.154;8.682;2023-11-18T12:02:11;10.33;;;8.43;;
65567;SDS011;52211;50.154;8.682;2023-11-18T12:04:46;10.97;;;8.77;;
65567;SDS011;52211;50.154;8.682;2023-11-18T12:07:23;11.37;;;9.17;;
65567;SDS011;52211;50.154;8.682;2023-11-18T12:09:57;10.20;;;9.00;;
65567;SDS011;52211;50.154;8.682;2023-11-18T12:12:32;10.77;;;8.30;;
65567;SDS011;52211;50.154;8.682;2023-11-18T12:15:01;10.93;;;7.70;;
65567;SDS011;52211;50.154;8.682;2023-11-18T12:23:23;10.43;;;8.10;;
65567;SDS011;52211;50.154;8.682;2023-11-18T12:25:54;9.23;;;8.23;;
65567;SDS011;52211;50.154;8.682;2023-11-18T12:28:26;9.63;;;7.77;;
65567;SDS011;52211;50.154;8.682;2023-11-18T12:31:02;9.97;;;8.40;;
65567;SDS011;52211;50.154;8.682;2023-11-18T12:42:07;11.53;;;9.40;;
65567;SDS011;52211;50.154;8.682;2023-11-18T12:48:03;15.10;;;9.20;;
65567;SDS011;52211;50.154;8.682;2023-11-18T12:50:38;11.20;;;8.77;;
65567;SDS011;52211;50.154;8.682;2023-11-18T12:53:11;11.23;;;9.00;;
65567;SDS011;52211;50.154;8.682;2023-11-18T12:55:41;10.57;;;9.17;;
65567;SDS011;52211;50.154;8.682;2023-11-18T13:18:53;16.70;;;13.50;;
65567;SDS011;52211;50.154;8.682;2023-11-18T13:21:22;9.17;;;8.17;;
65567;SDS011;52211;50.154;8.682;2023-11-18T13:23:51;11.67;;;8.53;;
65567;SDS011;52211;50.154;8.682;2023-11-18T13:26:21;9.30;;;8.27;;
65567;SDS011;52211;50.154;8.682;2023-11-18T13:28:53;10.10;;;8.67;;
65567;SDS011;52211;50.154;8.682;2023-11-18T13:31:20;13.17;;;8.40;;
65567;SDS011;52211;50.154;8.682;2023-11-18T13:33:54;8.17;;;7.37;;
65567;SDS011;52211;50.154;8.682;2023-11-18T13:36:21;8.83;;;7.80;;
